createdAt,value
2023-03-23T15:57:55.992Z,4.80
2023-03-23T16:00:28.113Z,5.85
2023-03-23T16:02:59.179Z,4.25
2023-03-23T16:05:26.885Z,4.40
2023-03-23T16:07:54.183Z,4.88
2023-03-23T16:10:23.844Z,6.53
2023-03-23T16:12:51.094Z,6.25
2023-03-23T16:15:18.251Z,5.50
2023-03-23T16:17:46.627Z,5.78
2023-03-23T16:20:19.742Z,5.28
2023-03-23T16:22:47.692Z,5.68
2023-03-23T16:25:15.608Z,4.65
2023-03-23T16:27:43.410Z,5.93
2023-03-23T16:30:20.591Z,5.93
2023-03-23T16:32:47.558Z,4.00
2023-03-23T16:35:15.897Z,4.35
2023-03-23T16:37:47.851Z,4.72
2023-03-23T16:40:16.102Z,3.97
2023-03-23T16:42:43.338Z,5.13
2023-03-23T16:45:11.131Z,5.55
2023-03-23T16:47:38.187Z,4.05
2023-03-23T16:50:07.833Z,5.50
2023-03-23T16:52:34.795Z,3.83
2023-03-23T16:55:14.870Z,3.28
2023-03-23T16:57:42.990Z,5.13
2023-03-23T17:00:16.262Z,5.47
2023-03-23T17:02:43.735Z,6.97
2023-03-23T17:05:11.856Z,7.05
2023-03-23T17:07:40.954Z,6.72
2023-03-23T17:10:10.719Z,4.57
2023-03-23T17:12:37.723Z,4.22
2023-03-23T17:15:05.524Z,4.90
2023-03-23T17:17:32.850Z,3.47
2023-03-23T17:19:59.817Z,4.43
2023-03-23T17:22:26.928Z,5.60
2023-03-23T17:24:53.881Z,7.22
2023-03-23T17:27:22.089Z,8.02
2023-03-23T17:29:49.202Z,6.43
2023-03-23T17:32:17.033Z,8.43
2023-03-23T17:34:43.922Z,5.78
2023-03-23T17:37:11.072Z,6.38
2023-03-23T17:39:43.319Z,7.90
2023-03-23T17:42:10.902Z,6.90
2023-03-23T17:44:37.827Z,7.68
2023-03-23T17:47:05.089Z,10.65
2023-03-23T17:49:32.372Z,7.60
2023-03-23T17:52:00.379Z,15.32
2023-03-23T17:54:29.539Z,13.32
2023-03-23T17:56:58.513Z,14.15
2023-03-23T17:59:26.280Z,11.73
2023-03-23T18:01:53.907Z,14.70
2023-03-23T18:04:20.942Z,15.60
2023-03-23T18:06:47.825Z,14.07
2023-03-23T18:09:15.553Z,15.93
2023-03-23T18:11:42.641Z,14.57
2023-03-23T18:14:09.505Z,13.38
2023-03-23T18:16:36.434Z,18.98
2023-03-23T18:19:03.386Z,23.00
2023-03-23T18:21:30.451Z,21.30
2023-03-23T18:23:59.522Z,22.48
2023-03-23T18:26:27.985Z,23.13
2023-03-23T18:28:55.877Z,18.23
2023-03-23T18:31:22.794Z,14.23
2023-03-23T18:33:51.292Z,10.05
2023-03-23T18:36:20.931Z,9.15
2023-03-23T18:38:48.760Z,6.25
2023-03-23T18:41:17.037Z,6.88
2023-03-23T18:43:44.430Z,7.50
2023-03-23T18:46:11.335Z,5.07
2023-03-23T18:48:38.484Z,5.70
2023-03-23T18:51:06.239Z,8.73
2023-03-23T18:53:33.342Z,8.07
2023-03-23T18:56:06.721Z,9.52
2023-03-23T18:58:33.589Z,18.38
2023-03-23T19:01:07.516Z,17.95
2023-03-23T19:03:36.232Z,17.05
2023-03-23T19:06:04.620Z,9.48
2023-03-23T19:08:31.985Z,7.15
2023-03-23T19:11:01.132Z,6.90
2023-03-23T19:13:30.343Z,7.28
2023-03-23T19:15:57.610Z,7.03
2023-03-23T19:18:24.565Z,4.43
2023-03-23T19:23:22.453Z,5.38
2023-03-23T19:25:49.986Z,5.47
2023-03-23T19:30:49.797Z,5.57
2023-03-23T19:33:17.527Z,6.30
2023-03-23T19:35:48.980Z,7.20
2023-03-23T19:38:17.553Z,7.82
2023-03-23T19:40:56.018Z,6.82
2023-03-23T19:43:24.926Z,5.68
2023-03-23T19:45:53.550Z,5.45
2023-03-23T19:48:20.818Z,8.02
2023-03-23T19:50:51.005Z,6.18
2023-03-23T19:53:19.222Z,6.13
2023-03-23T19:55:46.346Z,5.78
2023-03-23T19:58:14.122Z,5.45
2023-03-23T20:00:41.314Z,5.15
2023-03-23T20:03:08.815Z,4.28
2023-03-23T20:05:36.243Z,4.78
2023-03-23T20:08:04.834Z,4.85
2023-03-23T20:10:34.662Z,5.55
2023-03-23T20:13:05.370Z,4.88
2023-03-23T20:15:32.803Z,5.65
2023-03-23T20:18:01.041Z,5.15
2023-03-23T20:20:28.413Z,6.88
2023-03-23T20:22:57.816Z,4.45
2023-03-23T20:25:25.978Z,4.43
2023-03-23T20:27:54.176Z,7.00
2023-03-23T20:30:21.860Z,6.53
2023-03-23T20:32:48.761Z,5.95
2023-03-23T20:35:16.399Z,6.05
2023-03-23T20:37:43.484Z,8.70
2023-03-23T20:40:15.038Z,6.15
2023-03-23T20:42:44.176Z,5.78
2023-03-23T20:45:13.097Z,8.30
2023-03-23T20:47:40.683Z,4.53
2023-03-23T20:50:09.512Z,6.07
2023-03-23T20:52:37.018Z,6.03
2023-03-23T20:55:04.317Z,4.85
2023-03-23T20:57:31.268Z,6.63
2023-03-23T20:59:58.097Z,6.60
2023-03-23T21:02:26.092Z,6.20
2023-03-23T21:04:53.408Z,5.20
2023-03-23T21:07:23.310Z,9.48
2023-03-23T21:09:50.222Z,8.48
2023-03-23T21:12:17.402Z,7.20
2023-03-23T21:14:45.076Z,5.68
2023-03-23T21:17:12.103Z,6.18
2023-03-23T21:19:39.491Z,8.35
2023-03-23T21:22:07.027Z,6.20
2023-03-23T21:24:37.495Z,7.88
2023-03-23T21:27:05.453Z,6.88
2023-03-23T21:29:32.897Z,6.50
2023-03-23T21:34:29.750Z,8.68
2023-03-23T21:36:56.567Z,7.80
2023-03-23T21:39:23.882Z,6.43
2023-03-23T21:41:50.845Z,7.72
2023-03-23T21:44:18.288Z,8.02
2023-03-23T21:46:45.429Z,7.90
2023-03-23T21:49:14.571Z,7.38
2023-03-23T21:51:42.881Z,6.25
2023-03-23T21:54:11.649Z,7.88
2023-03-23T21:56:38.925Z,7.38
2023-03-23T21:59:07.612Z,7.18
2023-03-23T22:01:37.047Z,5.78
2023-03-23T22:04:05.236Z,8.10
2023-03-23T22:06:34.482Z,7.10
2023-03-23T22:09:05.470Z,9.05
2023-03-23T22:11:33.251Z,5.45
2023-03-23T22:14:01.007Z,5.85
2023-03-23T22:16:28.595Z,7.32
2023-03-23T22:18:58.839Z,6.75
2023-03-23T22:21:27.226Z,5.55
2023-03-23T22:23:56.803Z,7.32
2023-03-23T22:26:24.418Z,7.40
2023-03-23T22:28:52.091Z,7.53
2023-03-23T22:31:27.492Z,7.15
2023-03-23T22:33:56.322Z,10.02
2023-03-23T22:36:25.295Z,7.63
2023-03-23T22:38:52.280Z,6.95
2023-03-23T22:41:22.222Z,7.57
2023-03-23T22:43:49.307Z,8.35
2023-03-23T22:46:16.880Z,7.95
2023-03-23T22:48:44.891Z,6.68
2023-03-23T22:51:13.066Z,7.10
2023-03-23T22:53:40.490Z,7.70
2023-03-23T22:56:08.395Z,7.32
2023-03-23T22:58:35.711Z,8.32
2023-03-23T23:01:06.627Z,8.75
2023-03-23T23:03:34.407Z,7.13
2023-03-23T23:06:02.542Z,7.50
2023-03-23T23:08:30.729Z,10.65
2023-03-23T23:10:59.956Z,7.10
2023-03-23T23:13:27.628Z,8.63
2023-03-23T23:15:56.605Z,6.45
2023-03-23T23:18:24.996Z,6.57
2023-03-23T23:20:54.019Z,6.35
2023-03-23T23:23:21.657Z,6.55
2023-03-23T23:25:50.093Z,6.93
2023-03-23T23:28:17.490Z,6.82
2023-03-23T23:30:44.695Z,7.60
2023-03-23T23:33:11.784Z,6.75
2023-03-23T23:35:39.985Z,6.97
2023-03-23T23:38:09.765Z,6.45
2023-03-23T23:40:36.890Z,7.55
2023-03-23T23:43:04.880Z,8.15
2023-03-23T23:45:32.523Z,6.13
2023-03-23T23:48:00.051Z,6.78
2023-03-23T23:50:27.839Z,6.32
2023-03-23T23:52:54.770Z,7.80
2023-03-23T23:55:22.057Z,7.38
2023-03-23T23:57:49.687Z,7.80
